createdAt,value
2023-02-12T00:00:30.440Z,3.90
2023-02-12T00:03:02.968Z,3.70
2023-02-12T00:05:32.995Z,3.80
2023-02-12T00:08:03.245Z,3.80
2023-02-12T00:10:33.190Z,3.80
2023-02-12T00:13:03.177Z,3.70
2023-02-12T00:15:34.507Z,3.60
2023-02-12T00:18:07.316Z,3.70
2023-02-12T00:20:37.318Z,3.80
2023-02-12T00:23:07.609Z,3.70
2023-02-12T00:25:37.605Z,3.80
2023-02-12T00:28:07.633Z,3.80
2023-02-12T00:30:38.394Z,3.90
2023-02-12T00:33:10.941Z,4.00
2023-02-12T00:35:41.281Z,4.00
2023-02-12T00:38:11.209Z,4.00
2023-02-12T00:40:41.190Z,4.10
2023-02-12T00:43:11.506Z,4.00
2023-02-12T00:45:41.502Z,4.00
2023-02-12T00:48:14.090Z,4.10
2023-02-12T00:50:45.026Z,4.00
2023-02-12T00:53:15.667Z,4.00
2023-02-12T00:55:45.657Z,4.00
2023-02-12T00:58:18.905Z,4.00
2023-02-12T01:00:49.439Z,4.00
2023-02-12T01:03:22.006Z,4.00
2023-02-12T01:05:52.007Z,4.00
2023-02-12T01:08:23.456Z,4.00
2023-02-12T01:10:59.294Z,4.00
2023-02-12T01:13:30.517Z,3.90
2023-02-12T01:16:12.829Z,3.90
2023-02-12T01:18:45.513Z,3.80
2023-02-12T01:21:17.084Z,3.80
2023-02-12T01:23:47.616Z,3.80
2023-02-12T01:26:18.654Z,3.90
2023-02-12T01:28:52.373Z,3.80
2023-02-12T01:31:24.614Z,3.80
2023-02-12T01:33:58.445Z,3.90
2023-02-12T01:36:30.378Z,3.70
2023-02-12T01:39:02.948Z,3.70
2023-02-12T01:41:35.118Z,3.80
2023-02-12T01:44:15.610Z,3.80
2023-02-12T01:46:46.815Z,3.70
2023-02-12T01:49:23.591Z,3.70
2023-02-12T01:51:56.516Z,3.70
2023-02-12T01:54:28.515Z,3.90
2023-02-12T01:56:58.541Z,4.00
2023-02-12T01:59:28.952Z,3.90
2023-02-12T02:01:58.968Z,3.90
2023-02-12T02:04:39.544Z,3.80
2023-02-12T02:07:10.931Z,3.80
2023-02-12T02:09:41.918Z,3.80
2023-02-12T02:12:24.546Z,3.70
2023-02-12T02:14:57.972Z,3.90
2023-02-12T02:17:38.187Z,3.80
2023-02-12T02:20:45.722Z,4.00
2023-02-12T02:23:45.534Z,3.90
2023-02-12T02:26:31.691Z,3.80
2023-02-12T02:29:11.547Z,3.90
2023-02-12T02:31:45.990Z,3.80
2023-02-12T02:34:22.097Z,3.70
2023-02-12T02:37:00.792Z,3.70
2023-02-12T02:39:36.477Z,3.70
2023-02-12T02:42:12.739Z,3.70
2023-02-12T02:44:46.611Z,3.60
2023-02-12T02:47:21.098Z,3.60
2023-02-12T02:49:54.253Z,3.70
2023-02-12T02:52:29.308Z,3.70
2023-02-12T02:55:01.931Z,3.70
2023-02-12T02:57:39.523Z,3.70
2023-02-12T03:00:15.002Z,3.70
2023-02-12T03:02:50.620Z,3.70
2023-02-12T03:05:24.564Z,3.70
2023-02-12T03:07:57.478Z,3.70
2023-02-12T03:10:30.379Z,3.60
2023-02-12T03:13:04.576Z,3.60
2023-02-12T03:15:37.840Z,3.70
2023-02-12T03:18:12.913Z,3.70
2023-02-12T03:20:46.387Z,3.80
2023-02-12T03:23:18.911Z,3.70
2023-02-12T03:25:54.568Z,3.70
2023-02-12T03:28:30.052Z,3.60
2023-02-12T03:31:06.238Z,3.60
2023-02-12T03:33:44.648Z,3.70
2023-02-12T03:36:26.921Z,3.60
2023-02-12T03:38:58.461Z,3.60
2023-02-12T03:41:32.058Z,3.60
2023-02-12T03:44:09.100Z,3.60
2023-02-12T03:46:44.681Z,3.50
2023-02-12T03:49:23.306Z,3.50
2023-02-12T03:51:54.020Z,3.40
2023-02-12T03:54:24.971Z,3.40
2023-02-12T03:56:58.358Z,3.40
2023-02-12T03:59:28.931Z,3.40
2023-02-12T04:02:01.904Z,3.40
2023-02-12T04:04:35.032Z,3.40
2023-02-12T04:07:05.224Z,3.40
2023-02-12T04:09:35.398Z,3.30
2023-02-12T04:12:20.217Z,3.40
2023-02-12T04:14:59.310Z,3.40
2023-02-12T04:17:36.514Z,3.40
2023-02-12T04:20:13.795Z,3.50
2023-02-12T04:22:52.989Z,3.50
2023-02-12T04:25:28.668Z,3.50
2023-02-12T04:28:03.822Z,3.50
2023-02-12T04:30:38.561Z,3.40
2023-02-12T04:33:10.876Z,3.60
2023-02-12T04:35:47.284Z,3.60
2023-02-12T04:38:20.730Z,3.60
2023-02-12T04:40:51.121Z,3.60
2023-02-12T04:43:30.500Z,3.50
2023-02-12T04:46:00.256Z,3.50
2023-02-12T04:48:30.293Z,3.50
2023-02-12T04:51:02.879Z,3.50
2023-02-12T04:53:32.883Z,3.50
2023-02-12T04:56:02.845Z,3.50
2023-02-12T04:58:32.772Z,3.50
2023-02-12T05:01:02.766Z,3.50
2023-02-12T05:03:32.750Z,3.50
2023-02-12T05:06:08.890Z,3.50
2023-02-12T05:08:39.110Z,3.50
2023-02-12T05:11:09.760Z,3.50
2023-02-12T05:13:41.887Z,3.50
2023-02-12T05:16:11.868Z,3.50
2023-02-12T05:18:41.841Z,3.60
2023-02-12T05:21:14.435Z,3.60
2023-02-12T05:23:44.947Z,3.60
2023-02-12T05:26:16.966Z,3.40
2023-02-12T05:28:47.010Z,3.40
2023-02-12T05:31:21.489Z,3.40
2023-02-12T05:33:52.675Z,3.40
2023-02-12T05:36:26.602Z,3.40
2023-02-12T05:38:59.743Z,3.50
2023-02-12T05:41:34.810Z,3.50
2023-02-12T05:44:05.302Z,3.40
2023-02-12T05:46:35.375Z,3.40
2023-02-12T05:49:05.335Z,3.50
2023-02-12T05:51:38.127Z,3.40
2023-02-12T05:54:10.026Z,3.40
2023-02-12T05:56:41.454Z,3.50
2023-02-12T05:59:15.632Z,3.40
2023-02-12T06:01:47.518Z,3.40
2023-02-12T06:04:19.102Z,3.40
2023-02-12T06:06:51.736Z,3.40
2023-02-12T06:09:21.770Z,3.30
2023-02-12T06:11:51.706Z,3.30
2023-02-12T06:14:23.670Z,3.30
2023-02-12T06:16:54.422Z,3.40
2023-02-12T06:19:24.583Z,3.40
2023-02-12T06:21:57.126Z,3.40
2023-02-12T06:24:27.118Z,3.30
2023-02-12T06:26:57.087Z,3.30
2023-02-12T06:29:27.136Z,3.40
2023-02-12T06:31:57.145Z,3.30
2023-02-12T06:34:27.132Z,3.30
2023-02-12T06:37:00.128Z,3.20
2023-02-12T06:39:30.110Z,3.20
2023-02-12T06:42:00.085Z,3.30
2023-02-12T06:44:30.116Z,3.20
2023-02-12T06:47:00.167Z,3.20
2023-02-12T06:49:30.138Z,3.20
2023-02-12T06:52:03.502Z,3.20
2023-02-12T06:54:33.749Z,3.20
2023-02-12T06:57:03.689Z,3.20
2023-02-12T06:59:34.385Z,3.20
2023-02-12T07:02:04.278Z,3.20
2023-02-12T07:04:34.223Z,3.20
2023-02-12T07:07:07.302Z,3.10
2023-02-12T07:09:37.278Z,3.20
2023-02-12T07:12:07.362Z,3.20
2023-02-12T07:14:37.407Z,3.30
2023-02-12T07:17:08.793Z,3.30
2023-02-12T07:19:39.177Z,3.40
2023-02-12T07:22:11.763Z,3.40
2023-02-12T07:24:41.841Z,3.40
2023-02-12T07:27:11.773Z,3.30
2023-02-12T07:29:41.713Z,3.30
2023-02-12T07:32:11.761Z,3.30
2023-02-12T07:34:41.809Z,3.30
2023-02-12T07:37:14.358Z,3.40
2023-02-12T07:39:44.324Z,3.40
2023-02-12T07:42:15.232Z,3.40
2023-02-12T07:44:51.850Z,3.40
2023-02-12T07:47:21.799Z,3.40
2023-02-12T07:49:51.794Z,3.50
2023-02-12T07:52:24.337Z,3.60
2023-02-12T07:54:54.237Z,3.60
2023-02-12T07:57:24.406Z,3.70
2023-02-12T07:59:54.312Z,3.70
2023-02-12T08:02:25.729Z,3.70
2023-02-12T08:04:58.684Z,3.70
2023-02-12T08:07:31.285Z,3.70
2023-02-12T08:10:01.227Z,3.70
2023-02-12T08:12:31.158Z,240.60
2023-02-12T08:15:01.087Z,240.60
2023-02-12T08:17:31.005Z,3.80
2023-02-12T08:20:01.033Z,240.60
2023-02-12T08:22:33.581Z,240.60
2023-02-12T08:25:03.499Z,240.60
2023-02-12T08:27:33.469Z,240.60
2023-02-12T08:30:03.523Z,240.60
2023-02-12T08:32:33.909Z,240.60
2023-02-12T08:35:03.931Z,240.60
2023-02-12T08:37:36.461Z,240.60
2023-02-12T08:40:06.702Z,240.60
2023-02-12T08:42:36.629Z,240.60
2023-02-12T08:45:06.942Z,240.60
2023-02-12T08:47:36.862Z,240.60
2023-02-12T08:50:07.065Z,240.60
2023-02-12T08:52:42.966Z,240.60
2023-02-12T08:55:13.013Z,240.60
2023-02-12T08:57:43.000Z,240.60
2023-02-12T09:00:15.101Z,240.60
2023-02-12T09:02:45.152Z,240.60
2023-02-12T09:05:15.142Z,240.60
2023-02-12T09:07:47.680Z,240.60
2023-02-12T09:10:17.801Z,240.60
2023-02-12T09:12:48.534Z,240.60
2023-02-12T09:15:18.748Z,240.60
2023-02-12T09:17:48.666Z,240.60
2023-02-12T09:20:18.989Z,240.60
2023-02-12T09:22:51.735Z,240.60
2023-02-12T09:25:21.669Z,240.60
2023-02-12T09:27:51.628Z,240.60
2023-02-12T09:30:21.753Z,240.60
2023-02-12T09:32:51.814Z,240.60
2023-02-12T09:35:21.826Z,240.60
2023-02-12T09:37:55.628Z,240.60
2023-02-12T09:40:28.964Z,240.60
2023-02-12T09:43:07.908Z,240.60
2023-02-12T09:45:40.452Z,240.60
2023-02-12T09:48:20.046Z,240.60
2023-02-12T09:50:54.891Z,240.60
2023-02-12T09:53:34.415Z,240.60
2023-02-12T09:56:04.425Z,240.60
2023-02-12T09:58:37.052Z,240.60
2023-02-12T10:01:13.912Z,240.60
2023-02-12T10:03:44.500Z,240.60
2023-02-12T10:06:17.584Z,240.60
2023-02-12T10:09:00.524Z,240.60
2023-02-12T10:11:54.353Z,240.60
2023-02-12T10:15:03.599Z,240.60
2023-02-12T10:17:36.836Z,240.60
2023-02-12T10:20:36.352Z,240.60
2023-02-12T10:23:18.044Z,240.60
2023-02-12T10:25:54.501Z,240.60
2023-02-12T10:28:29.370Z,240.60
2023-02-12T10:31:01.161Z,240.60
2023-02-12T10:33:36.364Z,240.60
2023-02-12T10:36:15.056Z,240.60
2023-02-12T10:38:48.941Z,240.60
2023-02-12T10:41:21.636Z,240.60
2023-02-12T10:43:51.737Z,240.60
2023-02-12T10:46:21.784Z,240.60
2023-02-12T10:48:58.971Z,240.60
2023-02-12T10:51:42.048Z,240.60
2023-02-12T10:54:41.057Z,240.60
2023-02-12T10:57:22.771Z,240.60
2023-02-12T10:59:54.232Z,240.60
2023-02-12T11:02:29.386Z,240.60
2023-02-12T11:05:01.497Z,240.60
2023-02-12T11:07:31.792Z,240.60
2023-02-12T11:10:01.750Z,240.60
2023-02-12T11:12:41.048Z,240.60
2023-02-12T11:15:15.661Z,240.60
2023-02-12T11:17:47.459Z,240.60
2023-02-12T11:20:29.052Z,240.60
2023-02-12T11:23:01.187Z,240.60
2023-02-12T11:25:33.125Z,240.60
2023-02-12T11:28:13.508Z,240.60
2023-02-12T11:30:53.958Z,240.60
2023-02-12T11:33:29.622Z,240.60
2023-02-12T11:36:01.913Z,240.60
2023-02-12T11:38:37.226Z,240.60
2023-02-12T11:41:12.244Z,240.60
2023-02-12T11:43:44.910Z,240.60
2023-02-12T11:46:22.700Z,240.60
2023-02-12T11:48:52.982Z,240.60
2023-02-12T11:51:25.091Z,240.60
2023-02-12T11:53:56.810Z,240.60
2023-02-12T11:56:26.941Z,240.60
2023-02-12T11:59:14.662Z,240.60
2023-02-12T12:01:44.861Z,240.60
2023-02-12T12:04:17.970Z,240.60
2023-02-12T12:06:51.115Z,240.60
2023-02-12T12:09:26.970Z,240.60
2023-02-12T12:12:02.131Z,240.60
2023-02-12T12:14:56.396Z,240.60
2023-02-12T12:17:42.468Z,240.60
2023-02-12T12:20:15.374Z,240.60
2023-02-12T12:22:50.799Z,240.60
2023-02-12T12:25:25.695Z,240.60
2023-02-12T12:28:13.478Z,240.60
2023-02-12T12:30:52.839Z,240.60
2023-02-12T12:33:23.658Z,240.60
2023-02-12T12:36:13.348Z,240.60
2023-02-12T12:38:50.141Z,240.60
2023-02-12T12:41:27.320Z,240.60
2023-02-12T12:44:09.745Z,240.60
2023-02-12T12:46:56.705Z,240.60
2023-02-12T12:49:37.934Z,240.60
2023-02-12T12:52:21.062Z,240.60
2023-02-12T12:55:08.458Z,240.60
2023-02-12T12:57:47.164Z,240.60
2023-02-12T13:00:44.351Z,240.60
2023-02-12T13:03:46.194Z,240.60
2023-02-12T13:06:24.830Z,240.60
2023-02-12T13:09:15.686Z,240.60
2023-02-12T13:11:52.788Z,240.60
2023-02-12T13:14:34.222Z,240.60
2023-02-12T13:17:09.212Z,240.60
2023-02-12T13:19:50.182Z,240.60
2023-02-12T13:22:26.431Z,240.60
2023-02-12T13:24:59.975Z,240.60
2023-02-12T13:27:34.474Z,240.60
2023-02-12T13:30:09.440Z,240.60
2023-02-12T13:32:43.455Z,240.60
2023-02-12T13:35:22.557Z,240.60
2023-02-12T13:37:55.337Z,240.60
2023-02-12T13:40:27.701Z,240.60
2023-02-12T13:43:01.463Z,240.60
2023-02-12T13:45:43.683Z,240.60
2023-02-12T13:48:32.093Z,240.60
2023-02-12T13:51:09.734Z,240.60
2023-02-12T13:53:49.699Z,240.60
2023-02-12T13:56:30.634Z,240.60
2023-02-12T13:59:01.129Z,240.60
2023-02-12T14:01:47.718Z,240.60
2023-02-12T14:04:29.911Z,240.60
2023-02-12T14:07:08.134Z,240.60
2023-02-12T14:09:40.860Z,240.60
2023-02-12T14:12:13.481Z,240.60
2023-02-12T14:14:45.651Z,240.60
2023-02-12T14:17:55.275Z,240.60
2023-02-12T14:20:28.240Z,240.60
2023-02-12T14:23:20.724Z,240.60
2023-02-12T14:25:59.137Z,240.60
2023-02-12T14:28:37.589Z,240.60
2023-02-12T14:31:32.492Z,240.60
2023-02-12T14:34:35.021Z,240.60
2023-02-12T14:37:18.948Z,240.60
2023-02-12T14:39:51.673Z,240.60
2023-02-12T14:42:46.282Z,240.60
2023-02-12T14:45:32.882Z,240.60
2023-02-12T14:48:02.995Z,240.60
2023-02-12T14:50:40.730Z,240.60
2023-02-12T14:53:27.093Z,240.60
2023-02-12T14:56:00.216Z,240.60
2023-02-12T14:58:31.247Z,240.60
2023-02-12T15:01:03.396Z,240.60
2023-02-12T15:03:41.234Z,240.60
2023-02-12T15:06:14.991Z,240.60
2023-02-12T15:08:48.263Z,240.60
2023-02-12T15:11:26.794Z,240.60
2023-02-12T15:13:58.948Z,240.60
2023-02-12T15:16:35.413Z,240.60
2023-02-12T15:19:11.030Z,240.60
2023-02-12T15:21:41.473Z,240.60
2023-02-12T15:24:13.231Z,240.60
2023-02-12T15:26:50.245Z,240.60
2023-02-12T15:29:24.462Z,240.60
2023-02-12T15:31:56.165Z,240.60
2023-02-12T15:34:28.380Z,240.60
2023-02-12T15:37:02.071Z,240.60
2023-02-12T15:39:37.889Z,240.60
2023-02-12T15:42:26.692Z,240.60
2023-02-12T15:45:11.954Z,240.60
2023-02-12T15:47:42.177Z,240.60
2023-02-12T15:50:15.257Z,240.60
2023-02-12T15:52:47.271Z,240.60
2023-02-12T15:55:19.418Z,240.60
2023-02-12T15:57:56.098Z,240.60
2023-02-12T16:00:31.997Z,240.60
2023-02-12T16:03:02.010Z,240.60
2023-02-12T16:05:34.781Z,240.60
2023-02-12T16:08:05.241Z,240.60
2023-02-12T16:10:35.260Z,240.60
2023-02-12T16:13:08.276Z,240.60
2023-02-12T16:15:40.447Z,240.60
2023-02-12T16:18:26.146Z,240.60
2023-02-12T16:21:06.438Z,240.60
2023-02-12T16:23:38.063Z,240.60
2023-02-12T16:26:08.591Z,240.60
2023-02-12T16:28:41.356Z,240.60
2023-02-12T16:31:13.469Z,240.60
2023-02-12T16:33:48.828Z,240.60
2023-02-12T16:36:32.009Z,240.60
2023-02-12T16:39:04.187Z,240.60
2023-02-12T16:41:35.159Z,240.60
2023-02-12T16:44:33.039Z,240.60
2023-02-12T16:47:03.877Z,240.60
2023-02-12T16:49:33.800Z,240.60
2023-02-12T16:52:23.575Z,240.60
2023-02-12T16:54:53.515Z,240.60
2023-02-12T16:57:23.488Z,240.60
2023-02-12T16:59:56.023Z,240.60
2023-02-12T17:02:25.977Z,240.60
2023-02-12T17:04:56.869Z,240.60
2023-02-12T17:07:29.555Z,240.60
2023-02-12T17:09:59.724Z,240.60
2023-02-12T17:12:29.949Z,240.60
2023-02-12T17:15:06.600Z,240.60
2023-02-12T17:17:36.523Z,240.60
2023-02-12T17:20:06.637Z,240.60
2023-02-12T17:22:36.696Z,240.60
2023-02-12T17:25:07.116Z,240.60
2023-02-12T17:27:38.232Z,240.60
2023-02-12T17:30:12.141Z,240.60
2023-02-12T17:32:42.119Z,240.60
2023-02-12T17:35:12.550Z,240.60
2023-02-12T17:37:42.466Z,240.60
2023-02-12T17:40:14.769Z,240.60
2023-02-12T17:42:44.743Z,240.60
2023-02-12T17:45:17.382Z,240.60
2023-02-12T17:47:47.293Z,240.60
2023-02-12T17:50:19.030Z,240.60
2023-02-12T17:52:49.315Z,240.60
2023-02-12T17:55:19.409Z,240.60
2023-02-12T17:57:49.337Z,240.60
2023-02-12T18:00:24.535Z,240.60
2023-02-12T18:02:57.044Z,240.60
2023-02-12T18:05:27.222Z,240.60
2023-02-12T18:07:57.309Z,240.60
2023-02-12T18:10:27.260Z,240.60
2023-02-12T18:12:57.338Z,240.60
2023-02-12T18:15:27.325Z,240.60
2023-02-12T18:17:59.922Z,240.60
2023-02-12T18:20:30.053Z,240.60
2023-02-12T18:22:59.991Z,240.60
2023-02-12T18:25:30.054Z,240.60
2023-02-12T18:28:01.395Z,240.60
2023-02-12T18:30:31.648Z,240.60
2023-02-12T18:33:04.386Z,240.60
2023-02-12T18:35:37.171Z,240.60
2023-02-12T18:38:10.920Z,240.60
2023-02-12T18:40:43.041Z,240.60
2023-02-12T18:43:13.005Z,240.60
2023-02-12T18:45:43.346Z,240.60
2023-02-12T18:48:16.012Z,240.60
2023-02-12T18:50:46.094Z,240.60
2023-02-12T18:53:16.094Z,240.60
2023-02-12T18:55:46.419Z,240.60
2023-02-12T18:58:16.427Z,240.60
2023-02-12T19:00:46.455Z,240.60
2023-02-12T19:03:19.851Z,240.60
2023-02-12T19:05:49.897Z,240.60
2023-02-12T19:08:19.996Z,240.60
2023-02-12T19:10:50.000Z,240.60
2023-02-12T19:13:20.053Z,240.60
2023-02-12T19:15:50.054Z,240.60
2023-02-12T19:18:22.609Z,240.60
2023-02-12T19:20:52.650Z,240.60
2023-02-12T19:23:27.235Z,240.60
2023-02-12T19:25:57.326Z,240.60
2023-02-12T19:28:27.333Z,240.60
2023-02-12T19:30:57.674Z,240.60
2023-02-12T19:33:30.563Z,240.60
2023-02-12T19:36:00.598Z,240.60
2023-02-12T19:38:30.647Z,240.60
2023-02-12T19:41:05.631Z,240.60
2023-02-12T19:43:35.915Z,240.60
2023-02-12T19:46:09.249Z,240.60
2023-02-12T19:48:42.165Z,240.60
2023-02-12T19:51:16.527Z,240.60
2023-02-12T19:53:46.688Z,240.60
2023-02-12T19:56:17.109Z,240.60
2023-02-12T19:58:48.095Z,240.60
2023-02-12T20:01:20.211Z,240.60
2023-02-12T20:03:52.953Z,240.60
2023-02-12T20:06:24.676Z,240.60
2023-02-12T20:08:54.770Z,240.60
2023-02-12T20:11:25.828Z,240.60
2023-02-12T20:13:55.904Z,240.60
2023-02-12T20:16:34.311Z,240.60
2023-02-12T20:19:11.059Z,240.60
2023-02-12T20:21:41.703Z,240.60
2023-02-12T20:24:11.631Z,240.60
2023-02-12T20:26:41.951Z,240.60
2023-02-12T20:29:11.928Z,240.60
2023-02-12T20:31:42.117Z,240.60
2023-02-12T20:34:16.325Z,240.60
2023-02-12T20:36:48.886Z,240.60
2023-02-12T20:39:20.355Z,240.60
2023-02-12T20:41:50.600Z,240.60
2023-02-12T20:44:23.063Z,240.60
2023-02-12T20:46:57.108Z,240.60
2023-02-12T20:49:29.989Z,240.60
2023-02-12T20:51:59.926Z,240.60
2023-02-12T20:54:29.838Z,240.60
2023-02-12T20:56:59.802Z,240.60
2023-02-12T20:59:29.813Z,240.60
2023-02-12T21:01:59.767Z,240.60
2023-02-12T21:04:32.666Z,240.60
2023-02-12T21:07:02.780Z,240.60
2023-02-12T21:09:33.759Z,240.60
2023-02-12T21:12:03.727Z,240.60
2023-02-12T21:14:33.749Z,240.60
2023-02-12T21:17:03.700Z,240.60
2023-02-12T21:19:37.053Z,240.60
2023-02-12T21:22:07.012Z,240.60
2023-02-12T21:24:37.076Z,240.60
2023-02-12T21:27:07.045Z,240.60
2023-02-12T21:29:36.991Z,240.60
2023-02-12T21:32:07.318Z,240.60
2023-02-12T21:34:40.178Z,240.60
2023-02-12T21:37:10.107Z,240.60
2023-02-12T21:39:40.016Z,240.60
2023-02-12T21:42:09.958Z,240.60
2023-02-12T21:44:39.917Z,240.60
2023-02-12T21:47:10.248Z,240.60
2023-02-12T21:49:42.921Z,240.60
2023-02-12T21:52:13.055Z,240.60
2023-02-12T21:54:43.104Z,240.60
2023-02-12T21:57:18.133Z,240.60
2023-02-12T21:59:48.118Z,240.60
2023-02-12T22:02:18.361Z,240.60
2023-02-12T22:04:50.925Z,240.60
2023-02-12T22:07:21.053Z,240.60
2023-02-12T22:09:51.039Z,240.60
2023-02-12T22:12:20.958Z,240.60
2023-02-12T22:14:50.888Z,240.60
2023-02-12T22:17:20.893Z,240.60
2023-02-12T22:19:53.455Z,240.60
2023-02-12T22:22:23.918Z,240.60
2023-02-12T22:24:53.834Z,240.60
2023-02-12T22:27:23.805Z,240.60
2023-02-12T22:29:53.836Z,240.60
2023-02-12T22:32:23.907Z,240.60
2023-02-12T22:34:56.740Z,240.60
2023-02-12T22:37:26.691Z,240.60
2023-02-12T22:39:56.626Z,240.60
2023-02-12T22:42:26.536Z,240.60
2023-02-12T22:44:56.470Z,240.60
2023-02-12T22:47:29.015Z,240.60
2023-02-12T22:50:01.750Z,240.60
2023-02-12T22:52:31.967Z,240.60
2023-02-12T22:55:01.928Z,240.60
2023-02-12T22:57:31.855Z,240.60
2023-02-12T23:00:01.810Z,240.60
2023-02-12T23:02:31.739Z,240.60
2023-02-12T23:05:04.305Z,240.60
2023-02-12T23:07:34.289Z,240.60
2023-02-12T23:10:04.254Z,240.60
2023-02-12T23:12:34.150Z,240.60
2023-02-12T23:15:04.099Z,240.60
2023-02-12T23:17:34.070Z,240.60
2023-02-12T23:20:07.559Z,240.60
2023-02-12T23:22:37.597Z,240.60
2023-02-12T23:25:08.123Z,240.60
2023-02-12T23:27:38.077Z,240.60
2023-02-12T23:30:09.492Z,240.60
2023-02-12T23:32:39.431Z,240.60
2023-02-12T23:35:12.188Z,240.60
2023-02-12T23:37:42.080Z,240.60
2023-02-12T23:40:13.881Z,240.60
2023-02-12T23:42:43.791Z,240.60
2023-02-12T23:45:13.692Z,240.60
2023-02-12T23:47:43.644Z,240.60
2023-02-12T23:50:16.331Z,240.60
2023-02-12T23:52:46.517Z,240.60
2023-02-12T23:55:16.510Z,240.60
2023-02-12T23:57:46.452Z,240.60
